WXM80 ListenWXM80 Stop

You find our weather info also at:

UK Metoffice

WeatherCloud

Weather Underground

Northeastern Weather Network

AWEKAS

Citizen Weather Observer Program (CWOP)

HAMweather, WeatherForYou, PWS Weather


Weather Underground History page Text

Daily Summary for April 6, 2017 Units:  English    Metric   Both
« Previous Day
Next Day »
Daily Weekly Monthly Yearly Custom
  High: Low: Average:
Temperature: 56.0 °F 39.8 °F 44.6 °F
Dew Point: 55.6 °F 38.6 °F 43.2 °F
Humidity: 99 % 88 % 95 %
Wind Speed: 16.0 mph 0.4 mph 7.7 mph
Wind Gust: 26.5 mph - -
Wind:- - ESE
Pressure: 29.98 in 29.15 in -
Precipitation: 0.00 in    
Historical Graphs
 
 
Tabular Data for April 6, 2017
Time Temperature Dew Point Pressure Wind Wind Speed Wind Gust Humidity Rainfall Rate (Hourly)
00:03 43.2 °F 40.8 °F 29.98 in SE 2.8 mph 4.6 mph 91 % 0.00 in
00:08 43.2 °F 40.8 °F 29.98 in ESE 1.8 mph 5.0 mph 91 % 0.00 in
00:13 43.2 °F 40.8 °F 29.98 in ESE 1.8 mph 3.5 mph 91 % 0.00 in
00:18 43.1 °F 40.7 °F 29.98 in SE 3.3 mph 4.6 mph 91 % 0.00 in
00:19 43.2 °F 40.8 °F 29.98 in SE 2.2 mph 3.5 mph 91 % 0.00 in
00:24 43.1 °F 40.7 °F 29.98 in SE 4.0 mph 6.9 mph 91 % 0.00 in
00:29 43.1 °F 40.7 °F 29.98 in SE 2.7 mph 8.1 mph 91 % 0.00 in
00:34 43.1 °F 40.7 °F 29.98 in South 0.5 mph 3.0 mph 91 % 0.00 in
00:39 43.2 °F 40.8 °F 29.98 in East 1.5 mph 8.1 mph 91 % 0.00 in
00:44 43.2 °F 40.8 °F 29.97 in SE 2.9 mph 6.9 mph 91 % 0.00 in
00:49 43.1 °F 40.7 °F 29.97 in East 4.7 mph 8.1 mph 91 % 0.00 in
00:50 43.2 °F 40.8 °F 29.97 in East 4.3 mph 8.1 mph 91 % 0.00 in
00:55 43.2 °F 41.0 °F 29.97 in East 3.5 mph 8.1 mph 92 % 0.00 in
01:00 43.2 °F 41.0 °F 29.97 in East 0.4 mph 4.6 mph 92 % 0.00 in
01:05 43.2 °F 41.0 °F 29.97 in East 3.1 mph 6.9 mph 92 % 0.00 in
01:10 43.3 °F 41.1 °F 29.97 in East 1.4 mph 5.0 mph 92 % 0.00 in
01:15 43.3 °F 41.1 °F 29.97 in East 3.5 mph 7.0 mph 92 % 0.00 in
01:20 43.4 °F 41.2 °F 29.96 in East 5.4 mph 6.9 mph 92 % 0.00 in
01:25 43.4 °F 41.2 °F 29.96 in East 2.1 mph 5.8 mph 92 % 0.00 in
01:31 43.4 °F 41.2 °F 29.96 in East 3.4 mph 4.6 mph 92 % 0.00 in
01:36 43.5 °F 41.3 °F 29.96 in ESE 2.8 mph 4.6 mph 92 % 0.00 in
01:41 43.5 °F 41.3 °F 29.96 in East 4.7 mph 6.9 mph 92 % 0.00 in
01:46 43.5 °F 41.0 °F 29.95 in East 2.2 mph 4.6 mph 91 % 0.00 in
01:51 43.5 °F 41.0 °F 29.95 in East 0.8 mph 3.5 mph 91 % 0.00 in
01:56 43.6 °F 41.1 °F 29.95 in ESE 3.5 mph 6.9 mph 91 % 0.00 in
02:01 43.6 °F 41.1 °F 29.95 in ESE 3.0 mph 5.0 mph 91 % 0.00 in
02:06 43.6 °F 41.1 °F 29.95 in SE 5.4 mph 6.9 mph 91 % 0.00 in
02:11 43.6 °F 41.1 °F 29.95 in East 3.3 mph 6.9 mph 91 % 0.00 in
02:16 43.6 °F 40.9 °F 29.94 in ESE 4.8 mph 9.2 mph 90 % 0.00 in
02:21 43.6 °F 40.9 °F 29.94 in East 4.7 mph 7.0 mph 90 % 0.00 in
02:26 43.7 °F 41.0 °F 29.95 in ESE 6.2 mph 10.4 mph 90 % 0.00 in
02:31 43.7 °F 41.0 °F 29.94 in East 4.7 mph 7.0 mph 90 % 0.00 in
02:36 43.7 °F 41.0 °F 29.94 in East 4.4 mph 8.0 mph 90 % 0.00 in
02:41 43.7 °F 41.0 °F 29.94 in East 5.8 mph 8.1 mph 90 % 0.00 in
02:46 43.6 °F 40.9 °F 29.93 in East 5.1 mph 8.1 mph 90 % 0.00 in
02:51 43.6 °F 40.9 °F 29.93 in East 5.6 mph 7.0 mph 90 % 0.00 in
02:56 43.6 °F 40.9 °F 29.93 in East 4.4 mph 9.2 mph 90 % 0.00 in
03:01 43.5 °F 40.8 °F 29.93 in East 7.1 mph 9.2 mph 90 % 0.00 in
03:07 43.5 °F 40.8 °F 29.93 in East 2.2 mph 4.6 mph 90 % 0.00 in
03:12 43.5 °F 40.8 °F 29.93 in ESE 3.2 mph 5.8 mph 90 % 0.00 in
03:17 43.5 °F 40.8 °F 29.93 in East 3.7 mph 7.0 mph 90 % 0.00 in
03:22 43.5 °F 40.8 °F 29.93 in East 4.7 mph 6.9 mph 90 % 0.00 in
03:24 43.5 °F 40.8 °F 29.93 in East 6.5 mph 10.4 mph 90 % 0.00 in
03:29 43.4 °F 40.7 °F 29.93 in East 3.5 mph 6.9 mph 90 % 0.00 in
03:34 43.4 °F 40.7 °F 29.93 in East 3.9 mph 6.0 mph 90 % 0.00 in
03:39 43.4 °F 40.7 °F 29.92 in East 6.4 mph 8.1 mph 90 % 0.00 in
03:44 43.4 °F 40.7 °F 29.92 in East 6.5 mph 8.1 mph 90 % 0.00 in
03:49 43.3 °F 40.6 °F 29.92 in East 4.5 mph 9.2 mph 90 % 0.00 in
03:54 43.3 °F 40.6 °F 29.92 in East 5.2 mph 11.5 mph 90 % 0.00 in
03:59 43.2 °F 40.2 °F 29.92 in East 8.5 mph 10.4 mph 89 % 0.00 in
04:04 43.1 °F 40.1 °F 29.91 in East 7.6 mph 12.7 mph 89 % 0.00 in
04:09 43.0 °F 40.0 °F 29.91 in East 8.1 mph 12.7 mph 89 % 0.00 in
04:14 42.9 °F 39.9 °F 29.91 in East 7.2 mph 9.2 mph 89 % 0.00 in
04:19 42.8 °F 39.8 °F 29.90 in East 9.1 mph 13.0 mph 89 % 0.00 in
04:24 42.6 °F 39.3 °F 29.91 in East 7.5 mph 11.5 mph 88 % 0.00 in
04:29 42.5 °F 39.5 °F 29.91 in East 5.1 mph 9.2 mph 89 % 0.00 in
04:34 42.4 °F 39.4 °F 29.91 in East 4.3 mph 8.1 mph 89 % 0.00 in
04:39 42.4 °F 39.4 °F 29.91 in East 6.9 mph 13.8 mph 89 % 0.00 in
04:44 42.3 °F 39.3 °F 29.91 in East 6.8 mph 9.2 mph 89 % 0.00 in
04:49 42.3 °F 39.6 °F 29.91 in East 6.4 mph 10.4 mph 90 % 0.00 in
04:54 42.2 °F 39.5 °F 29.91 in East 6.5 mph 8.1 mph 90 % 0.00 in
04:59 42.0 °F 39.3 °F 29.90 in East 9.5 mph 12.7 mph 90 % 0.00 in
05:04 41.9 °F 39.2 °F 29.92 in East 7.4 mph 9.2 mph 90 % 0.00 in
05:09 41.9 °F 39.2 °F 29.91 in East 6.9 mph 9.2 mph 90 % 0.00 in
05:14 41.8 °F 39.1 °F 29.91 in East 6.1 mph 8.1 mph 90 % 0.00 in
05:19 41.8 °F 39.4 °F 29.90 in East 6.5 mph 8.1 mph 91 % 0.00 in
05:25 41.8 °F 39.4 °F 29.89 in East 9.2 mph 11.5 mph 91 % 0.00 in
05:30 41.5 °F 39.1 °F 29.89 in East 8.2 mph 11.5 mph 91 % 0.00 in
05:35 41.4 °F 39.3 °F 29.89 in East 7.1 mph 10.4 mph 92 % 0.00 in
05:40 41.3 °F 39.2 °F 29.88 in East 7.5 mph 8.1 mph 92 % 0.00 in
05:45 41.2 °F 39.1 °F 29.89 in East 6.6 mph 8.1 mph 92 % 0.00 in
05:50 41.1 °F 39.2 °F 29.88 in East 5.8 mph 8.1 mph 93 % 0.00 in
05:55 41.0 °F 39.1 °F 29.87 in East 6.9 mph 9.2 mph 93 % 0.00 in
06:00 41.0 °F 39.1 °F 29.87 in East 6.6 mph 8.1 mph 93 % 0.00 in
06:05 40.9 °F 39.0 °F 29.86 in ENE 6.9 mph 8.0 mph 93 % 0.00 in
06:10 40.7 °F 38.8 °F 29.85 in East 7.4 mph 11.0 mph 93 % 0.00 in
06:15 40.7 °F 38.8 °F 29.85 in East 10.5 mph 15.0 mph 93 % 0.00 in
06:20 40.5 °F 38.6 °F 29.85 in East 9.8 mph 12.7 mph 93 % 0.00 in
06:25 40.5 °F 38.9 °F 29.84 in East 8.7 mph 13.0 mph 94 % 0.00 in
06:30 40.4 °F 38.8 °F 29.83 in ENE 9.1 mph 11.5 mph 94 % 0.00 in
06:35 40.2 °F 38.6 °F 29.84 in East 9.2 mph 13.8 mph 94 % 0.00 in
06:40 40.2 °F 38.6 °F 29.83 in East 9.5 mph 10.4 mph 94 % 0.00 in
06:45 40.1 °F 38.8 °F 29.83 in East 8.2 mph 11.5 mph 95 % 0.00 in
06:50 40.1 °F 38.8 °F 29.83 in ENE 8.1 mph 10.4 mph 95 % 0.00 in
06:55 40.0 °F 38.7 °F 29.83 in East 7.0 mph 10.0 mph 95 % 0.00 in
07:00 40.0 °F 38.7 °F 29.83 in ENE 5.0 mph 9.2 mph 95 % 0.00 in
07:05 40.0 °F 38.7 °F 29.83 in ENE 6.8 mph 9.2 mph 95 % 0.00 in
07:10 40.0 °F 38.7 °F 29.83 in East 6.1 mph 8.1 mph 95 % 0.00 in
07:15 40.0 °F 38.7 °F 29.83 in ENE 7.2 mph 10.4 mph 95 % 0.00 in
07:20 39.9 °F 38.9 °F 29.81 in ENE 8.2 mph 10.4 mph 96 % 0.00 in
07:25 39.9 °F 38.6 °F 29.81 in ENE 8.2 mph 11.5 mph 95 % 0.00 in
07:30 39.8 °F 38.8 °F 29.80 in ENE 9.1 mph 11.5 mph 96 % 0.00 in
07:36 39.9 °F 38.9 °F 29.80 in East 7.6 mph 9.2 mph 96 % 0.00 in
07:41 39.9 °F 38.9 °F 29.81 in ENE 9.1 mph 12.7 mph 96 % 0.00 in
07:46 39.9 °F 38.9 °F 29.80 in ENE 9.7 mph 12.7 mph 96 % 0.00 in
07:51 39.9 °F 38.9 °F 29.79 in East 10.7 mph 15.0 mph 96 % 0.00 in
07:56 39.9 °F 38.9 °F 29.79 in East 10.1 mph 13.0 mph 96 % 0.00 in
08:01 39.9 °F 38.9 °F 29.79 in ENE 11.1 mph 13.8 mph 96 % 0.00 in
08:06 40.0 °F 39.0 °F 29.79 in ENE 9.9 mph 16.1 mph 96 % 0.00 in
08:11 40.0 °F 39.0 °F 29.78 in ENE 10.6 mph 14.0 mph 96 % 0.00 in
08:16 40.0 °F 39.0 °F 29.77 in East 9.9 mph 12.7 mph 96 % 0.00 in
08:21 40.0 °F 39.0 °F 29.77 in East 11.1 mph 15.0 mph 96 % 0.00 in
08:26 40.0 °F 39.0 °F 29.76 in ENE 11.2 mph 13.8 mph 96 % 0.00 in
08:31 40.1 °F 39.1 °F 29.76 in East 12.9 mph 14.0 mph 96 % 0.00 in
08:36 40.1 °F 39.1 °F 29.75 in East 11.3 mph 16.1 mph 96 % 0.00 in
08:41 40.1 °F 39.1 °F 29.75 in ESE 10.5 mph 15.0 mph 96 % 0.00 in
08:46 40.2 °F 39.2 °F 29.75 in ENE 11.5 mph 16.1 mph 96 % 0.00 in
08:51 40.2 °F 39.4 °F 29.74 in East 12.5 mph 16.1 mph 97 % 0.00 in
08:56 40.2 °F 39.2 °F 29.74 in East 10.9 mph 15.0 mph 96 % 0.00 in
09:01 40.3 °F 39.3 °F 29.75 in East 10.9 mph 13.8 mph 96 % 0.00 in
09:06 40.3 °F 39.3 °F 29.75 in East 8.7 mph 13.8 mph 96 % 0.00 in
09:11 40.4 °F 39.4 °F 29.74 in East 9.4 mph 12.7 mph 96 % 0.00 in
09:16 40.4 °F 39.4 °F 29.74 in East 8.2 mph 11.5 mph 96 % 0.00 in
09:21 40.4 °F 39.4 °F 29.73 in East 8.4 mph 9.2 mph 96 % 0.00 in
09:26 40.4 °F 39.6 °F 29.72 in East 9.1 mph 15.0 mph 97 % 0.00 in
09:32 40.5 °F 39.7 °F 29.72 in East 10.7 mph 15.0 mph 97 % 0.00 in
09:37 40.6 °F 39.8 °F 29.72 in East 9.8 mph 15.0 mph 97 % 0.00 in
09:42 40.7 °F 39.9 °F 29.72 in East 9.9 mph 12.7 mph 97 % 0.00 in
09:47 40.7 °F 39.6 °F 29.71 in East 8.7 mph 12.7 mph 96 % 0.00 in
09:52 40.8 °F 39.7 °F 29.71 in East 9.2 mph 14.0 mph 96 % 0.00 in
09:57 40.8 °F 39.7 °F 29.71 in East 11.1 mph 15.0 mph 96 % 0.00 in
10:02 40.8 °F 39.7 °F 29.71 in East 9.7 mph 11.5 mph 96 % 0.00 in
10:07 40.9 °F 39.8 °F 29.70 in ENE 8.4 mph 13.0 mph 96 % 0.00 in
10:12 40.9 °F 39.8 °F 29.70 in East 11.5 mph 15.0 mph 96 % 0.00 in
10:17 40.9 °F 39.8 °F 29.70 in East 10.5 mph 13.8 mph 96 % 0.00 in
10:22 40.9 °F 39.8 °F 29.70 in ENE 8.3 mph 10.4 mph 96 % 0.00 in
10:27 41.0 °F 39.9 °F 29.69 in East 8.8 mph 10.4 mph 96 % 0.00 in
10:32 41.0 °F 40.2 °F 29.69 in East 9.0 mph 14.0 mph 97 % 0.00 in
10:37 41.1 °F 40.3 °F 29.69 in East 8.8 mph 11.5 mph 97 % 0.00 in
10:42 41.1 °F 40.3 °F 29.68 in East 8.5 mph 10.4 mph 97 % 0.00 in
10:47 41.2 °F 40.4 °F 29.67 in East 9.2 mph 12.7 mph 97 % 0.00 in
10:52 41.2 °F 40.4 °F 29.68 in East 8.8 mph 13.8 mph 97 % 0.00 in
10:57 41.3 °F 40.5 °F 29.67 in East 9.4 mph 10.4 mph 97 % 0.00 in
11:02 41.3 °F 40.5 °F 29.67 in East 7.0 mph 9.2 mph 97 % 0.00 in
11:07 41.3 °F 40.5 °F 29.67 in East 8.5 mph 11.5 mph 97 % 0.00 in
11:12 41.3 °F 40.5 °F 29.67 in ENE 7.1 mph 11.5 mph 97 % 0.00 in
11:17 41.4 °F 40.6 °F 29.67 in East 6.1 mph 9.2 mph 97 % 0.00 in
11:22 41.4 °F 40.6 °F 29.66 in East 7.1 mph 10.4 mph 97 % 0.00 in
11:27 41.4 °F 40.6 °F 29.65 in ENE 8.3 mph 11.5 mph 97 % 0.00 in
11:32 41.3 °F 40.5 °F 29.65 in ENE 7.7 mph 10.4 mph 97 % 0.00 in
11:37 41.2 °F 40.4 °F 29.66 in ENE 6.6 mph 11.5 mph 97 % 0.00 in
11:42 41.2 °F 40.4 °F 29.65 in East 8.4 mph 11.0 mph 97 % 0.00 in
11:47 41.2 °F 40.4 °F 29.64 in ENE 9.0 mph 11.5 mph 97 % 0.00 in
11:52 41.1 °F 40.3 °F 29.65 in ENE 9.0 mph 12.7 mph 97 % 0.00 in
11:57 41.1 °F 40.3 °F 29.65 in ENE 7.9 mph 10.4 mph 97 % 0.00 in
12:02 41.0 °F 40.2 °F 29.64 in ENE 8.7 mph 10.4 mph 97 % 0.00 in
12:08 41.0 °F 40.2 °F 29.63 in ENE 9.5 mph 15.0 mph 97 % 0.00 in
12:13 40.9 °F 40.1 °F 29.63 in East 9.1 mph 13.8 mph 97 % 0.00 in
12:18 40.9 °F 40.1 °F 29.63 in ENE 11.2 mph 13.8 mph 97 % 0.00 in
12:23 40.9 °F 40.1 °F 29.62 in ENE 10.1 mph 14.0 mph 97 % 0.00 in
12:28 40.9 °F 40.1 °F 29.61 in ENE 10.6 mph 16.0 mph 97 % 0.00 in
12:33 40.9 °F 40.1 °F 29.60 in East 12.8 mph 16.1 mph 97 % 0.00 in
12:38 40.9 °F 40.1 °F 29.58 in ENE 12.1 mph 16.1 mph 97 % 0.00 in
12:43 40.9 °F 40.1 °F 29.58 in ENE 9.9 mph 18.4 mph 97 % 0.00 in
12:48 40.9 °F 40.1 °F 29.58 in East 10.8 mph 13.8 mph 97 % 0.00 in
12:53 40.8 °F 40.0 °F 29.58 in East 10.2 mph 15.0 mph 97 % 0.00 in
12:56 40.8 °F 40.0 °F 29.57 in East 9.8 mph 11.5 mph 97 % 0.00 in
13:01 40.9 °F 40.1 °F 29.56 in ENE 12.6 mph 15.0 mph 97 % 0.00 in
13:06 40.9 °F 40.1 °F 29.56 in East 10.0 mph 15.0 mph 97 % 0.00 in
13:11 41.0 °F 40.2 °F 29.55 in ENE 12.5 mph 15.0 mph 97 % 0.00 in
13:16 41.0 °F 40.2 °F 29.55 in ENE 11.8 mph 15.0 mph 97 % 0.00 in
13:21 41.0 °F 40.2 °F 29.53 in ENE 10.3 mph 15.0 mph 97 % 0.00 in
13:27 41.1 °F 40.6 °F 29.53 in East 9.6 mph 11.5 mph 98 % 0.00 in
13:32 41.1 °F 40.6 °F 29.52 in NE 10.0 mph 14.0 mph 98 % 0.00 in
13:37 41.1 °F 40.6 °F 29.51 in East 10.3 mph 13.8 mph 98 % 0.00 in
13:42 41.2 °F 40.4 °F 29.50 in ENE 13.2 mph 17.3 mph 97 % 0.00 in
13:47 41.3 °F 40.5 °F 29.49 in ENE 12.5 mph 18.4 mph 97 % 0.00 in
13:52 41.4 °F 40.9 °F 29.50 in ENE 10.3 mph 13.8 mph 98 % 0.00 in
13:57 41.3 °F 40.8 °F 29.49 in ENE 12.8 mph 16.1 mph 98 % 0.00 in
14:02 41.2 °F 40.4 °F 29.48 in East 11.8 mph 17.3 mph 97 % 0.00 in
14:07 41.2 °F 40.7 °F 29.48 in ENE 13.9 mph 17.3 mph 98 % 0.00 in
14:12 41.2 °F 40.7 °F 29.47 in East 12.3 mph 18.4 mph 98 % 0.00 in
14:17 41.1 °F 40.6 °F 29.46 in ENE 13.7 mph 21.9 mph 98 % 0.00 in
14:22 41.1 °F 40.6 °F 29.45 in East 12.3 mph 23.0 mph 98 % 0.00 in
14:27 41.1 °F 40.6 °F 29.45 in East 16.0 mph 19.6 mph 98 % 0.00 in
14:32 41.2 °F 40.7 °F 29.44 in East 11.7 mph 17.3 mph 98 % 0.00 in
14:37 41.6 °F 41.1 °F 29.43 in East 11.8 mph 13.8 mph 98 % 0.00 in
14:42 41.9 °F 41.4 °F 29.41 in ENE 13.8 mph 20.7 mph 98 % 0.00 in
14:47 42.0 °F 41.5 °F 29.41 in East 13.4 mph 19.6 mph 98 % 0.00 in
14:52 42.0 °F 41.5 °F 29.42 in ENE 13.8 mph 16.1 mph 98 % 0.00 in
14:57 41.8 °F 41.3 °F 29.41 in East 12.0 mph 18.4 mph 98 % 0.00 in
15:02 41.7 °F 41.2 °F 29.40 in ENE 12.2 mph 18.4 mph 98 % 0.00 in
15:07 41.6 °F 41.1 °F 29.39 in ENE 13.0 mph 17.0 mph 98 % 0.00 in
15:12 41.5 °F 41.0 °F 29.38 in ENE 11.3 mph 14.0 mph 98 % 0.00 in
15:17 41.6 °F 41.1 °F 29.38 in ENE 13.0 mph 16.0 mph 98 % 0.00 in
15:22 41.6 °F 41.1 °F 29.36 in ENE 14.0 mph 22.0 mph 98 % 0.00 in
15:27 41.7 °F 41.2 °F 29.35 in ENE 14.8 mph 25.0 mph 98 % 0.00 in
15:32 41.5 °F 41.0 °F 29.34 in East 13.0 mph 24.0 mph 98 % 0.00 in
15:37 41.5 °F 41.0 °F 29.33 in ENE 12.5 mph 19.6 mph 98 % 0.00 in
15:42 41.4 °F 40.9 °F 29.32 in ENE 13.5 mph 17.3 mph 98 % 0.00 in
15:47 41.5 °F 41.0 °F 29.32 in ENE 11.7 mph 13.8 mph 98 % 0.00 in
15:52 41.6 °F 41.1 °F 29.30 in East 13.4 mph 18.4 mph 98 % 0.00 in
15:57 41.5 °F 41.0 °F 29.31 in East 13.2 mph 13.2 mph 98 % 0.00 in
16:02 41.5 °F 41.0 °F 29.30 in ENE 14.8 mph 18.4 mph 98 % 0.00 in
16:07 41.5 °F 41.0 °F 29.28 in East 14.0 mph 18.0 mph 98 % 0.00 in
16:12 41.5 °F 41.0 °F 29.26 in East 15.0 mph 17.3 mph 98 % 0.00 in
16:17 41.5 °F 41.0 °F 29.27 in ENE 13.7 mph 18.4 mph 98 % 0.00 in
16:22 41.6 °F 41.1 °F 29.26 in East 13.9 mph 18.4 mph 98 % 0.00 in
16:27 41.6 °F 41.1 °F 29.26 in East 9.9 mph 15.0 mph 98 % 0.00 in
16:32 42.0 °F 41.5 °F 29.24 in East 9.4 mph 13.8 mph 98 % 0.00 in
16:37 42.3 °F 41.8 °F 29.25 in ENE 8.0 mph 15.0 mph 98 % 0.00 in
16:42 42.5 °F 42.0 °F 29.22 in ENE 12.2 mph 15.0 mph 98 % 0.00 in
16:47 42.6 °F 42.1 °F 29.20 in East 11.7 mph 14.0 mph 98 % 0.00 in
16:52 42.6 °F 42.1 °F 29.20 in East 12.0 mph 17.0 mph 98 % 0.00 in
16:57 42.7 °F 42.2 °F 29.18 in East 12.7 mph 14.0 mph 98 % 0.00 in
17:02 43.0 °F 42.5 °F 29.16 in ENE 10.8 mph 13.8 mph 98 % 0.00 in
17:07 43.4 °F 42.9 °F 29.17 in East 13.0 mph 18.0 mph 98 % 0.00 in
17:12 43.9 °F 43.4 °F 29.15 in East 9.3 mph 12.7 mph 98 % 0.00 in
17:14 44.0 °F 43.5 °F 29.18 in ENE 3.2 mph 8.1 mph 98 % 0.00 in
17:19 47.2 °F 46.7 °F 29.18 in South 12.4 mph 19.6 mph 98 % 0.00 in
17:24 53.0 °F 52.5 °F 29.19 in SSW 8.3 mph 11.5 mph 98 % 0.00 in
17:29 55.1 °F 54.8 °F 29.21 in SW 15.0 mph 26.5 mph 99 % 0.00 in
17:34 55.9 °F 55.3 °F 29.21 in South 6.1 mph 19.6 mph 98 % 0.00 in
17:39 56.0 °F 55.4 °F 29.21 in South 9.3 mph 13.8 mph 98 % 0.00 in
17:44 55.9 °F 55.6 °F 29.21 in SSW 8.1 mph 12.0 mph 99 % 0.00 in
17:49 55.8 °F 55.5 °F 29.21 in South 7.7 mph 11.5 mph 99 % 0.00 in
17:54 55.6 °F 55.3 °F 29.21 in South 8.9 mph 15.0 mph 99 % 0.00 in
17:59 55.5 °F 55.2 °F 29.20 in South 4.7 mph 15.0 mph 99 % 0.00 in
18:04 55.3 °F 55.0 °F 29.20 in SW 7.2 mph 11.5 mph 99 % 0.00 in
18:09 55.1 °F 54.8 °F 29.20 in SW 6.4 mph 11.5 mph 99 % 0.00 in
18:14 54.9 °F 54.6 °F 29.20 in South 3.6 mph 9.2 mph 99 % 0.00 in
18:20 54.8 °F 54.5 °F 29.19 in South 5.1 mph 6.9 mph 99 % 0.00 in
18:25 54.6 °F 54.3 °F 29.20 in SSW 3.8 mph 4.6 mph 99 % 0.00 in
18:30 54.5 °F 54.2 °F 29.20 in South 3.6 mph 4.6 mph 99 % 0.00 in
18:35 54.4 °F 54.1 °F 29.19 in SSW 6.4 mph 8.1 mph 99 % 0.00 in
18:40 54.4 °F 54.1 °F 29.19 in SSW 4.2 mph 7.0 mph 99 % 0.00 in
18:45 54.4 °F 54.1 °F 29.19 in SSE 3.1 mph 6.9 mph 99 % 0.00 in
18:50 54.4 °F 54.1 °F 29.19 in South 5.5 mph 8.0 mph 99 % 0.00 in
18:55 54.2 °F 53.6 °F 29.18 in SSW 2.1 mph 5.0 mph 98 % 0.00 in
19:00 54.2 °F 53.6 °F 29.18 in SSE 4.5 mph 6.9 mph 98 % 0.00 in
19:05 54.2 °F 53.6 °F 29.18 in South 3.2 mph 5.8 mph 98 % 0.00 in
19:10 54.0 °F 53.4 °F 29.18 in SSE 2.2 mph 5.8 mph 98 % 0.00 in
19:15 53.9 °F 53.6 °F 29.17 in SSE 4.2 mph 8.1 mph 99 % 0.00 in
19:20 53.7 °F 53.4 °F 29.18 in South 3.9 mph 8.1 mph 99 % 0.00 in
19:25 53.6 °F 53.0 °F 29.18 in SSE 6.0 mph 10.4 mph 98 % 0.00 in
19:31 53.5 °F 52.9 °F 29.17 in SSE 3.9 mph 10.4 mph 98 % 0.00 in
19:36 53.3 °F 52.8 °F 29.18 in South 4.7 mph 9.2 mph 98 % 0.00 in
19:41 53.3 °F 52.8 °F 29.18 in SE 5.4 mph 8.0 mph 98 % 0.00 in
19:46 53.3 °F 52.8 °F 29.18 in SSE 5.0 mph 6.9 mph 98 % 0.00 in
19:51 53.2 °F 52.7 °F 29.18 in South 3.4 mph 6.9 mph 98 % 0.00 in
19:56 53.2 °F 52.7 °F 29.18 in South 4.5 mph 8.1 mph 98 % 0.00 in
20:01 53.3 °F 52.8 °F 29.18 in South 3.5 mph 6.0 mph 98 % 0.00 in
20:06 53.3 °F 52.8 °F 29.18 in South 3.6 mph 8.0 mph 98 % 0.00 in
20:11 53.4 °F 52.8 °F 29.19 in South 7.8 mph 12.7 mph 98 % 0.00 in
20:16 53.4 °F 52.8 °F 29.19 in SSW 5.4 mph 11.5 mph 98 % 0.00 in
20:21 53.3 °F 52.8 °F 29.19 in SW 6.0 mph 11.5 mph 98 % 0.00 in
20:26 53.2 °F 52.7 °F 29.19 in SSW 4.4 mph 10.4 mph 98 % 0.00 in
20:31 53.0 °F 52.5 °F 29.19 in SW 6.7 mph 13.8 mph 98 % 0.00 in
20:36 52.8 °F 52.3 °F 29.19 in SSW 3.4 mph 6.9 mph 98 % 0.00 in
20:41 52.4 °F 51.9 °F 29.20 in South 5.8 mph 8.1 mph 98 % 0.00 in
20:46 52.2 °F 51.7 °F 29.20 in SW 5.8 mph 12.7 mph 98 % 0.00 in
20:51 51.9 °F 51.4 °F 29.20 in SSW 6.7 mph 11.5 mph 98 % 0.00 in
20:56 51.7 °F 51.2 °F 29.20 in SW 7.4 mph 11.5 mph 98 % 0.00 in
21:01 51.5 °F 51.0 °F 29.20 in SSW 6.1 mph 8.1 mph 98 % 0.00 in
21:06 51.3 °F 50.5 °F 29.21 in South 7.7 mph 12.0 mph 97 % 0.00 in
21:11 51.2 °F 50.4 °F 29.21 in SSW 8.0 mph 13.8 mph 97 % 0.00 in
21:16 51.1 °F 50.3 °F 29.22 in SSW 7.0 mph 13.8 mph 97 % 0.00 in
21:21 51.0 °F 50.2 °F 29.22 in WSW 4.9 mph 8.1 mph 97 % 0.00 in
21:27 50.8 °F 50.0 °F 29.22 in WSW 7.6 mph 13.8 mph 97 % 0.00 in
21:32 50.7 °F 49.6 °F 29.22 in SSW 7.1 mph 13.8 mph 96 % 0.00 in
21:33 50.6 °F 49.5 °F 29.22 in SW 7.2 mph 13.8 mph 96 % 0.00 in
21:38 50.5 °F 49.4 °F 29.22 in WSW 6.6 mph 11.5 mph 96 % 0.00 in
21:43 50.4 °F 49.0 °F 29.23 in SW 6.3 mph 13.8 mph 95 % 0.00 in
21:48 50.4 °F 48.7 °F 29.23 in SSW 7.7 mph 11.5 mph 94 % 0.00 in
21:53 50.3 °F 48.6 °F 29.23 in SW 8.1 mph 13.8 mph 94 % 0.00 in
21:58 50.3 °F 48.6 °F 29.23 in SW 3.6 mph 11.5 mph 94 % 0.00 in
22:03 50.1 °F 48.2 °F 29.24 in SW 7.1 mph 11.5 mph 93 % 0.00 in
22:08 50.0 °F 48.1 °F 29.24 in SW 6.7 mph 15.0 mph 93 % 0.00 in
22:13 50.0 °F 47.8 °F 29.24 in SW 5.7 mph 8.1 mph 92 % 0.00 in
22:18 49.9 °F 47.7 °F 29.24 in SW 8.0 mph 13.0 mph 92 % 0.00 in
22:29 49.9 °F 47.4 °F 29.24 in SSW 7.7 mph 16.1 mph 91 % 0.00 in
22:34 49.9 °F 47.1 °F 29.24 in SW 5.5 mph 10.0 mph 90 % 0.00 in
22:39 49.9 °F 47.1 °F 29.24 in WSW 6.6 mph 11.5 mph 90 % 0.00 in
22:44 49.9 °F 47.1 °F 29.24 in SSW 5.7 mph 10.4 mph 90 % 0.00 in
22:49 49.8 °F 47.0 °F 29.24 in West 6.6 mph 11.5 mph 90 % 0.00 in
22:54 49.7 °F 46.6 °F 29.24 in SW 3.5 mph 9.2 mph 89 % 0.00 in
22:59 49.7 °F 46.6 °F 29.24 in SW 6.8 mph 12.0 mph 89 % 0.00 in
23:04 49.7 °F 46.6 °F 29.24 in WSW 6.3 mph 13.0 mph 89 % 0.00 in
23:09 49.6 °F 46.5 °F 29.24 in SW 5.4 mph 12.7 mph 89 % 0.00 in
23:14 49.6 °F 46.2 °F 29.24 in SSW 6.3 mph 10.4 mph 88 % 0.00 in
23:19 49.5 °F 46.1 °F 29.24 in SSW 4.8 mph 11.5 mph 88 % 0.00 in
23:24 49.5 °F 46.1 °F 29.24 in SSW 4.0 mph 8.1 mph 88 % 0.00 in
23:29 49.4 °F 46.3 °F 29.24 in SSW 2.3 mph 5.0 mph 89 % 0.00 in
23:34 49.3 °F 46.2 °F 29.24 in SSW 5.2 mph 11.0 mph 89 % 0.00 in
23:35 49.3 °F 46.2 °F 29.24 in South 4.5 mph 11.5 mph 89 % 0.00 in
23:40 49.2 °F 46.1 °F 29.24 in SW 6.0 mph 13.8 mph 89 % 0.00 in
23:45 49.2 °F 46.1 °F 29.25 in South 6.4 mph 13.8 mph 89 % 0.00 in
23:50 49.2 °F 46.1 °F 29.25 in SSE 4.8 mph 7.0 mph 89 % 0.00 in
23:55 49.2 °F 46.1 °F 29.25 in WSW 2.3 mph 9.2 mph 89 % 0.00 in
Crab Meadow Weather
Compliments of Weather Underground - 3 mb

Script developed by  Jim McMurry - jmcmurry@mwt.net Adapted for the template by  Wim van der Kuil - Leuven-Template.eu

Extremes: A record low of - 128.6 degrees F was recorded at Vostok, Antarctica.